Profiler II — CZ2496 — position and weather

sailwx.info

Track history (hours):
 
Tides and Currents Weather Stations Pressure Air Temp Water Temp Dewpoint Dewpoint Depression Visibility Wind Speed Wind Dir Waves Ship Positions

Profiler II

Last reported at 2016-May-26 20:32 UTC. Time now 2016-May-29 09:36 UTC.
Position N 49°12' W 122°55'.

Type: Other ship. MMSI: 316002054.

Date/timePositionNaut miles runAvg speedWind from/ knotsBaromVisibWave heightAir tempDewpointWater temp
2016-May-26 20:32N 49°12' W 122°55'0 0.0
2016-May-26 19:33N 49°12' W 122°55'0 0.0
2016-May-26 18:33N 49°12' W 122°55'0 0.0
2016-May-26 17:33N 49°12' W 122°55'0 0.0
2016-May-26 16:33N 49°12' W 122°55'0 0.0
2016-May-26 15:33N 49°12' W 122°55'  
2016-May-20 21:34N 49°11' W 122°55'0 0.0
2016-May-20 20:33N 49°11' W 122°55'0 0.5
2016-May-20 19:33N 49°12' W 122°55'0 0.0
2016-May-20 18:33N 49°12' W 122°55'0 0.0
2016-May-18 22:34N 49°12' W 122°55'1111.0
2016-May-18 21:33N 49°07' W 123°10'4 4.1
2016-May-18 20:33N 49°07' W 123°17'0 0.4
2016-May-18 19:33N 49°07' W 123°16'1 0.8
2016-May-18 18:33N 49°07' W 123°17'1 0.7
2016-May-18 17:33N 49°07' W 123°16'0 0.2
2016-May-18 16:33N 49°07' W 123°16'3 3.2
2016-May-18 15:33N 49°07' W 123°11'0 0.0
2016-May-17 21:17N 49°07' W 123°11'1 1.3
2016-May-17 20:33N 49°08' W 123°12'1 1.2
2016-May-17 19:34N 49°07' W 123°11'0 0.3
2016-May-17 18:33N 49°07' W 123°11'0 0.4
2016-May-17 17:33N 49°07' W 123°12'0 0.0
2016-May-17 16:34N 49°07' W 123°12'6 5.5
2016-May-17 15:34N 49°08' W 123°03'6 6.4
2016-May-17 14:34N 49°12' W 122°55'0 0.0
2016-May-16 22:33N 49°12' W 122°55'1 0.7
2016-May-16 21:34N 49°11' W 122°55'0 0.4
2016-May-16 20:33N 49°11' W 122°55'  
Track history (hours):
 
Tides and Currents Weather Stations Pressure Air Temp Water Temp Dewpoint Dewpoint Depression Visibility Wind Speed Wind Dir Waves Ship Positions

Profiler II

Last reported at 2016-May-26 20:32 UTC. Time now 2016-May-29 09:36 UTC.
Position N 49°12' W 122°55'.

Type: Other ship. MMSI: 316002054.

Date/timePositionNaut miles runAvg speedWind from/ knotsBaromVisibWave heightAir tempDewpointWater temp
2016-May-26 20:32N 49°12' W 122°55'0 0.0
2016-May-26 19:33N 49°12' W 122°55'0 0.0
2016-May-26 18:33N 49°12' W 122°55'0 0.0
2016-May-26 17:33N 49°12' W 122°55'0 0.0
2016-May-26 16:33N 49°12' W 122°55'0 0.0
2016-May-26 15:33N 49°12' W 122°55'  
2016-May-20 21:34N 49°11' W 122°55'0 0.0
2016-May-20 20:33N 49°11' W 122°55'0 0.5
2016-May-20 19:33N 49°12' W 122°55'0 0.0
2016-May-20 18:33N 49°12' W 122°55'0 0.0
2016-May-18 22:34N 49°12' W 122°55'1111.0
2016-May-18 21:33N 49°07' W 123°10'4 4.1
2016-May-18 20:33N 49°07' W 123°17'0 0.4
2016-May-18 19:33N 49°07' W 123°16'1 0.8
2016-May-18 18:33N 49°07' W 123°17'1 0.7
2016-May-18 17:33N 49°07' W 123°16'0 0.2
2016-May-18 16:33N 49°07' W 123°16'3 3.2
2016-May-18 15:33N 49°07' W 123°11'0 0.0
2016-May-17 21:17N 49°07' W 123°11'1 1.3
2016-May-17 20:33N 49°08' W 123°12'1 1.2
2016-May-17 19:34N 49°07' W 123°11'0 0.3
2016-May-17 18:33N 49°07' W 123°11'0 0.4
2016-May-17 17:33N 49°07' W 123°12'0 0.0
2016-May-17 16:34N 49°07' W 123°12'6 5.5
2016-May-17 15:34N 49°08' W 123°03'6 6.4
2016-May-17 14:34N 49°12' W 122°55'0 0.0
2016-May-16 22:33N 49°12' W 122°55'1 0.7
2016-May-16 21:34N 49°11' W 122°55'0 0.4
2016-May-16 20:33N 49°11' W 122°55'  

Dump ship's entire track history